createdAt,value
2018-05-23T00:00:54.645Z,2.30
2018-05-23T00:01:54.650Z,2.20
2018-05-23T00:02:54.654Z,2.40
2018-05-23T00:03:54.657Z,2.60
2018-05-23T00:04:54.662Z,2.50
2018-05-23T00:05:54.664Z,2.30
2018-05-23T00:06:54.667Z,2.40
2018-05-23T00:07:54.672Z,2.30
2018-05-23T00:08:54.680Z,2.50
2018-05-23T00:09:54.679Z,2.30
2018-05-23T00:10:54.682Z,2.10
2018-05-23T00:11:54.685Z,2.30
2018-05-23T00:12:54.689Z,2.20
2018-05-23T00:13:54.691Z,2.30
2018-05-23T00:14:54.696Z,2.60
2018-05-23T00:15:54.699Z,2.40
2018-05-23T00:16:54.703Z,2.40
2018-05-23T00:17:54.708Z,2.50
2018-05-23T00:18:54.710Z,2.30
2018-05-23T00:19:54.717Z,2.00
2018-05-23T00:20:54.718Z,2.00
2018-05-23T00:21:54.720Z,2.00
2018-05-23T00:22:54.726Z,2.40
2018-05-23T00:23:54.728Z,2.20
2018-05-23T00:24:54.734Z,2.70
2018-05-23T00:25:54.735Z,2.60
2018-05-23T00:26:54.739Z,2.50
2018-05-23T00:27:54.743Z,2.50
2018-05-23T00:28:54.747Z,2.10
2018-05-23T00:29:54.750Z,2.50
2018-05-23T00:30:54.753Z,3.00
2018-05-23T00:31:54.757Z,2.50
2018-05-23T00:32:54.760Z,2.20
2018-05-23T00:33:54.763Z,2.10
2018-05-23T00:34:54.767Z,2.30
2018-05-23T00:35:54.771Z,2.60
2018-05-23T00:36:54.774Z,2.40
2018-05-23T00:37:54.778Z,2.10
2018-05-23T00:38:54.781Z,2.70
2018-05-23T00:39:54.789Z,2.50
2018-05-23T00:40:54.790Z,2.30
2018-05-23T00:41:54.791Z,2.50
2018-05-23T00:42:54.795Z,2.50
2018-05-23T00:43:54.799Z,2.60
2018-05-23T00:44:54.803Z,2.60
2018-05-23T00:45:54.806Z,2.60
2018-05-23T00:46:54.809Z,2.50
2018-05-23T00:47:54.817Z,2.60
2018-05-23T00:48:54.816Z,2.60
2018-05-23T00:49:54.821Z,2.50
2018-05-23T00:50:54.825Z,2.70
2018-05-23T00:51:54.826Z,2.80
2018-05-23T00:52:54.835Z,3.20
2018-05-23T00:53:54.834Z,2.10
2018-05-23T00:54:54.838Z,2.50
2018-05-23T00:55:54.843Z,2.30
2018-05-23T00:56:54.844Z,2.90
2018-05-23T00:57:54.852Z,3.00
2018-05-23T00:58:54.851Z,2.80
2018-05-23T00:59:54.867Z,2.70
2018-05-23T01:00:54.862Z,2.70
2018-05-23T01:01:54.863Z,2.70
2018-05-23T01:02:54.868Z,2.80
2018-05-23T01:03:54.870Z,2.50
2018-05-23T01:04:54.874Z,3.10
2018-05-23T01:05:54.877Z,2.90
2018-05-23T01:06:54.879Z,2.50
2018-05-23T01:07:54.884Z,3.10
2018-05-23T01:08:54.888Z,3.20
2018-05-23T01:09:54.891Z,2.70
2018-05-23T01:10:54.895Z,2.50
2018-05-23T01:11:54.901Z,3.40
2018-05-23T01:12:54.902Z,3.00
2018-05-23T01:13:54.904Z,2.90
2018-05-23T01:14:54.912Z,2.60
2018-05-23T01:15:54.912Z,3.20
2018-05-23T01:16:54.914Z,3.20
2018-05-23T01:17:54.924Z,3.30
2018-05-23T01:18:54.922Z,3.10
2018-05-23T01:19:54.926Z,3.20
2018-05-23T01:20:54.932Z,2.80
2018-05-23T01:21:54.932Z,2.70
2018-05-23T01:22:54.938Z,3.10
2018-05-23T01:23:54.939Z,2.80
2018-05-23T01:24:54.944Z,3.30
2018-05-23T01:25:54.945Z,3.50
2018-05-23T01:26:54.952Z,3.00
2018-05-23T01:27:54.953Z,3.30
2018-05-23T01:28:54.956Z,3.00
2018-05-23T01:29:54.959Z,2.80
2018-05-23T01:30:54.963Z,3.00
2018-05-23T01:31:54.967Z,2.80
2018-05-23T01:32:54.971Z,3.50
2018-05-23T01:33:54.973Z,3.10
2018-05-23T01:34:54.977Z,3.50
2018-05-23T01:35:54.980Z,2.90
2018-05-23T01:36:54.984Z,3.40
2018-05-23T01:37:54.988Z,3.40
2018-05-23T01:38:54.991Z,3.30
2018-05-23T01:39:54.995Z,3.20
2018-05-23T01:40:54.998Z,3.70
2018-05-23T01:41:55.001Z,3.50
2018-05-23T01:42:55.004Z,3.00
2018-05-23T01:43:55.008Z,3.30
2018-05-23T01:44:55.011Z,3.40
2018-05-23T01:45:55.014Z,3.50
2018-05-23T01:46:55.019Z,3.20
2018-05-23T01:47:55.023Z,3.60
2018-05-23T01:48:55.025Z,3.60
2018-05-23T01:49:55.029Z,3.70
2018-05-23T01:50:55.031Z,3.10
2018-05-23T01:51:55.046Z,3.30
2018-05-23T01:52:55.039Z,3.60
2018-05-23T01:53:55.041Z,3.20
2018-05-23T01:54:55.046Z,3.90
2018-05-23T01:55:55.049Z,3.40
2018-05-23T01:56:55.052Z,3.30
2018-05-23T01:57:55.055Z,3.20
2018-05-23T01:58:55.058Z,3.80
2018-05-23T01:59:55.069Z,3.60
2018-05-23T02:00:55.066Z,3.40
2018-05-23T02:01:55.068Z,3.60
2018-05-23T02:02:55.072Z,3.40
2018-05-23T02:03:55.076Z,3.50
2018-05-23T02:04:55.079Z,3.20
2018-05-23T02:05:55.081Z,3.90
2018-05-23T02:06:55.085Z,3.70
2018-05-23T02:07:55.088Z,3.70
2018-05-23T02:08:55.094Z,3.80
2018-05-23T02:09:55.095Z,3.80
2018-05-23T02:10:55.099Z,3.40
2018-05-23T02:11:55.106Z,4.00
2018-05-23T02:12:55.107Z,3.40
2018-05-23T02:13:55.113Z,3.70
2018-05-23T02:14:55.112Z,3.80
2018-05-23T02:15:55.115Z,3.70
2018-05-23T02:16:55.119Z,3.80
2018-05-23T02:17:55.121Z,4.70
2018-05-23T02:18:55.124Z,3.80
2018-05-23T02:19:55.128Z,3.80
2018-05-23T02:20:55.131Z,3.60
2018-05-23T02:21:55.134Z,3.80
2018-05-23T02:22:55.138Z,3.90
2018-05-23T02:23:55.141Z,3.40
2018-05-23T02:24:55.145Z,3.90
2018-05-23T02:25:55.147Z,4.30
2018-05-23T02:26:55.150Z,3.30
2018-05-23T02:27:55.152Z,3.40
2018-05-23T02:28:55.157Z,3.60
2018-05-23T02:29:55.160Z,4.30
2018-05-23T02:30:55.163Z,4.10
2018-05-23T02:31:55.167Z,4.30
2018-05-23T02:32:55.170Z,4.30
2018-05-23T02:33:55.173Z,4.00
2018-05-23T02:34:55.175Z,4.00
2018-05-23T02:35:55.180Z,4.20
2018-05-23T02:36:55.184Z,4.20
2018-05-23T02:37:55.185Z,4.00
2018-05-23T02:38:55.189Z,4.00
2018-05-23T02:39:55.192Z,4.30
2018-05-23T02:40:55.197Z,3.70
2018-05-23T02:41:55.199Z,4.60
2018-05-23T02:42:55.203Z,3.90
2018-05-23T02:43:55.206Z,4.20
2018-05-23T02:44:55.209Z,3.70
2018-05-23T02:45:55.212Z,4.00
2018-05-23T02:46:55.216Z,4.50
2018-05-23T02:47:55.220Z,4.10
2018-05-23T02:48:55.225Z,4.80
2018-05-23T02:49:55.224Z,4.20
2018-05-23T02:50:55.228Z,3.80
2018-05-23T02:51:55.233Z,4.50
2018-05-23T02:52:55.238Z,4.10
2018-05-23T02:53:55.238Z,4.60
2018-05-23T02:54:55.240Z,4.00
2018-05-23T02:55:55.244Z,4.50
2018-05-23T02:56:55.248Z,4.60
2018-05-23T02:57:55.251Z,3.90
2018-05-23T02:58:55.253Z,4.20
2018-05-23T02:59:55.257Z,3.90
2018-05-23T03:00:55.260Z,4.60
2018-05-23T03:01:55.263Z,4.70
2018-05-23T03:02:55.302Z,4.00
2018-05-23T03:03:55.270Z,4.70
2018-05-23T03:04:55.274Z,4.20
2018-05-23T03:05:55.278Z,4.40
2018-05-23T03:06:55.280Z,4.40
2018-05-23T03:07:55.283Z,4.40
2018-05-23T03:08:55.286Z,4.60
2018-05-23T03:09:55.289Z,4.20
2018-05-23T03:10:55.291Z,4.80
2018-05-23T03:11:55.296Z,4.60
2018-05-23T03:12:55.298Z,4.70
2018-05-23T03:13:55.302Z,5.30
2018-05-23T03:14:55.306Z,4.40
2018-05-23T03:15:55.312Z,4.40
2018-05-23T03:16:55.312Z,5.50
2018-05-23T03:17:55.312Z,4.10
2018-05-23T03:18:55.317Z,4.50
2018-05-23T03:19:55.321Z,4.70
2018-05-23T03:20:55.324Z,4.10
2018-05-23T03:21:55.328Z,4.80
2018-05-23T03:22:55.335Z,4.40
2018-05-23T03:23:55.334Z,4.40
2018-05-23T03:24:55.343Z,4.60
2018-05-23T03:25:55.340Z,4.60
2018-05-23T03:26:55.344Z,5.40
2018-05-23T03:27:55.347Z,5.20
2018-05-23T03:28:55.350Z,4.50
2018-05-23T03:29:55.353Z,5.60
2018-05-23T03:30:55.357Z,4.60
2018-05-23T03:31:55.368Z,5.10
2018-05-23T03:32:55.363Z,4.20
2018-05-23T03:33:55.366Z,5.00
2018-05-23T03:34:55.369Z,5.10
2018-05-23T03:35:55.372Z,4.60
2018-05-23T03:36:55.381Z,5.20
2018-05-23T03:37:55.380Z,4.50
2018-05-23T03:38:55.382Z,4.90
2018-05-23T03:39:55.384Z,5.00
2018-05-23T03:40:55.392Z,5.00
2018-05-23T03:41:55.391Z,4.70
2018-05-23T03:42:55.394Z,4.90
2018-05-23T03:43:55.397Z,4.40
2018-05-23T03:44:55.402Z,5.40
2018-05-23T03:45:55.404Z,5.10
2018-05-23T03:46:55.407Z,5.40
2018-05-23T03:47:55.410Z,5.60
2018-05-23T03:48:55.414Z,4.70
2018-05-23T03:49:55.416Z,4.80
2018-05-23T03:50:55.420Z,4.40
2018-05-23T03:51:55.424Z,5.50
2018-05-23T03:52:55.427Z,5.30
2018-05-23T03:53:55.429Z,4.80
2018-05-23T03:54:55.434Z,5.50
2018-05-23T03:55:55.436Z,4.50
2018-05-23T03:56:55.439Z,5.20
2018-05-23T03:57:55.442Z,5.30
2018-05-23T03:58:55.445Z,5.20
2018-05-23T03:59:55.450Z,4.60
2018-05-23T04:00:55.451Z,4.90
2018-05-23T04:01:55.454Z,5.00
2018-05-23T04:02:55.458Z,4.20
2018-05-23T04:03:55.460Z,4.50
2018-05-23T04:04:55.531Z,5.00
2018-05-23T04:05:55.467Z,5.20
2018-05-23T04:06:55.471Z,5.20
2018-05-23T04:07:55.474Z,5.40
2018-05-23T04:08:55.479Z,5.00
2018-05-23T04:09:55.480Z,5.50
2018-05-23T04:10:55.485Z,5.20
2018-05-23T04:11:55.488Z,4.80
2018-05-23T04:12:55.489Z,5.30
2018-05-23T04:13:55.493Z,5.30
2018-05-23T04:14:55.496Z,4.80
2018-05-23T04:15:55.499Z,5.00
2018-05-23T04:16:55.505Z,5.40
2018-05-23T04:17:55.506Z,5.10
2018-05-23T04:18:55.509Z,5.30
2018-05-23T04:19:55.513Z,5.10
2018-05-23T04:20:55.516Z,4.80
2018-05-23T04:21:55.519Z,4.30
2018-05-23T04:22:55.523Z,5.20
2018-05-23T04:23:55.525Z,5.00
2018-05-23T04:24:55.611Z,5.90
2018-05-23T04:25:55.532Z,5.20
2018-05-23T04:26:55.536Z,5.20
2018-05-23T04:27:55.538Z,5.10
2018-05-23T04:28:55.543Z,5.60
2018-05-23T04:29:55.545Z,5.50
2018-05-23T04:30:55.549Z,5.00
2018-05-23T04:31:55.553Z,4.50
2018-05-23T04:32:55.556Z,5.10
2018-05-23T04:33:55.559Z,4.70
2018-05-23T04:34:55.563Z,5.10
2018-05-23T04:35:55.567Z,4.80
2018-05-23T04:36:55.570Z,4.90
2018-05-23T04:37:55.573Z,5.20
2018-05-23T04:38:55.576Z,5.50
2018-05-23T04:39:55.579Z,4.80
2018-05-23T04:40:55.584Z,5.60
2018-05-23T04:41:55.587Z,4.60
2018-05-23T04:42:55.590Z,5.20
2018-05-23T04:43:55.595Z,4.80
2018-05-23T04:44:55.596Z,5.30
2018-05-23T04:45:55.600Z,5.80
2018-05-23T04:46:55.603Z,5.20
2018-05-23T04:47:55.607Z,5.10
2018-05-23T04:48:55.613Z,4.70
2018-05-23T04:49:55.613Z,5.20
2018-05-23T04:50:55.618Z,5.60
2018-05-23T04:51:55.622Z,6.00
2018-05-23T04:52:55.625Z,5.50
2018-05-23T04:53:55.628Z,5.10
2018-05-23T04:54:55.631Z,5.00
2018-05-23T04:55:55.635Z,5.50
2018-05-23T04:56:55.640Z,5.80
2018-05-23T04:57:55.643Z,5.10
2018-05-23T04:58:55.646Z,5.00
2018-05-23T04:59:55.648Z,5.40
2018-05-23T05:00:55.658Z,5.60
2018-05-23T05:01:55.656Z,4.70
2018-05-23T05:02:55.660Z,4.90
2018-05-23T05:03:55.664Z,5.00
2018-05-23T05:04:55.666Z,5.00
2018-05-23T05:05:55.671Z,5.30
2018-05-23T05:06:55.674Z,5.50
2018-05-23T05:07:55.677Z,5.20
2018-05-23T05:08:55.682Z,5.70
2018-05-23T05:09:55.760Z,5.00
2018-05-23T05:10:55.689Z,5.10
2018-05-23T05:11:55.695Z,5.30
2018-05-23T05:12:55.698Z,4.90
2018-05-23T05:13:55.698Z,5.70
2018-05-23T05:14:55.702Z,4.40
2018-05-23T05:15:55.706Z,4.70
2018-05-23T05:16:55.710Z,5.20
2018-05-23T05:17:55.713Z,5.60
2018-05-23T05:18:55.718Z,5.40
2018-05-23T05:19:55.721Z,5.00
2018-05-23T05:20:55.725Z,5.20
2018-05-23T05:21:55.728Z,5.60
2018-05-23T05:22:55.732Z,5.50
2018-05-23T05:23:55.737Z,5.60
2018-05-23T05:24:55.812Z,5.30
2018-05-23T05:25:55.745Z,5.60
2018-05-23T05:26:55.746Z,5.70
2018-05-23T05:27:55.751Z,5.20
2018-05-23T05:28:55.755Z,5.40
2018-05-23T05:29:55.757Z,5.10
2018-05-23T05:30:55.762Z,5.20
2018-05-23T05:31:55.767Z,5.40
2018-05-23T05:32:55.771Z,5.00
2018-05-23T05:33:55.775Z,4.80
2018-05-23T05:34:55.777Z,5.40
2018-05-23T05:35:55.781Z,5.00
2018-05-23T05:36:55.786Z,5.00
2018-05-23T05:37:55.787Z,5.20
2018-05-23T05:38:55.808Z,5.50
2018-05-23T05:39:55.797Z,5.20
2018-05-23T05:40:55.800Z,5.20
2018-05-23T05:41:55.803Z,5.70
2018-05-23T05:42:55.807Z,5.70
2018-05-23T05:43:55.812Z,4.40
2018-05-23T05:44:55.817Z,6.00
2018-05-23T05:45:55.818Z,5.70
2018-05-23T05:46:55.828Z,5.80
2018-05-23T05:47:55.826Z,5.50
2018-05-23T05:48:55.829Z,5.40
2018-05-23T05:49:55.835Z,5.60
2018-05-23T05:50:55.838Z,5.20
2018-05-23T05:51:55.842Z,5.30
2018-05-23T05:52:55.848Z,5.60
2018-05-23T05:53:55.849Z,6.30
2018-05-23T05:54:55.854Z,5.10
2018-05-23T05:55:55.858Z,5.50
2018-05-23T05:56:55.864Z,4.90
2018-05-23T05:57:55.865Z,5.30
2018-05-23T05:58:55.874Z,5.60
2018-05-23T05:59:55.874Z,5.80
2018-05-23T06:00:55.878Z,5.40
2018-05-23T06:01:55.931Z,5.60
2018-05-23T06:02:55.888Z,5.30
2018-05-23T06:03:55.890Z,5.40
2018-05-23T06:04:55.894Z,5.80
2018-05-23T06:05:55.900Z,5.40
2018-05-23T06:06:55.902Z,5.10
2018-05-23T06:07:55.909Z,5.00
2018-05-23T06:08:55.911Z,5.20
2018-05-23T06:09:56.003Z,5.30
2018-05-23T06:10:55.917Z,5.40
2018-05-23T06:11:55.925Z,5.40
2018-05-23T06:12:55.928Z,4.70
2018-05-23T06:13:55.935Z,5.50
2018-05-23T06:14:55.936Z,5.60
2018-05-23T06:15:55.939Z,5.70
2018-05-23T06:16:55.946Z,5.10
2018-05-23T06:17:55.951Z,5.50
2018-05-23T06:18:55.953Z,4.70
2018-05-23T06:19:55.959Z,5.30
2018-05-23T06:20:55.967Z,5.30
2018-05-23T06:21:55.967Z,5.70
2018-05-23T06:22:55.972Z,5.30
2018-05-23T06:23:55.977Z,5.60
2018-05-23T06:24:55.982Z,5.10
2018-05-23T06:25:55.994Z,5.80
2018-05-23T06:26:55.990Z,5.20
2018-05-23T06:27:55.994Z,5.30
2018-05-23T06:28:56.001Z,5.40
2018-05-23T06:29:56.011Z,5.40
2018-05-23T06:30:56.010Z,5.40
2018-05-23T06:31:56.014Z,4.90
2018-05-23T06:32:56.021Z,5.30
2018-05-23T06:33:56.023Z,5.10
2018-05-23T06:34:56.028Z,5.40
2018-05-23T06:35:56.032Z,5.10
2018-05-23T06:36:56.038Z,5.20
2018-05-23T06:37:56.042Z,5.10
2018-05-23T06:38:56.048Z,4.60
2018-05-23T06:39:56.052Z,5.00
2018-05-23T06:40:56.057Z,5.00
2018-05-23T06:41:56.063Z,5.90
2018-05-23T06:42:56.067Z,5.60
2018-05-23T06:43:56.072Z,4.60
2018-05-23T06:44:56.079Z,4.80
2018-05-23T06:45:56.082Z,5.20
2018-05-23T06:46:56.087Z,4.30
2018-05-23T06:47:56.092Z,5.00
2018-05-23T06:48:56.099Z,5.00
2018-05-23T06:49:56.192Z,4.90
2018-05-23T06:50:56.108Z,4.80
2018-05-23T06:51:56.113Z,5.00
2018-05-23T06:52:56.118Z,5.00
2018-05-23T06:53:56.122Z,4.80
2018-05-23T06:54:56.129Z,4.80
2018-05-23T06:55:56.134Z,4.70
2018-05-23T06:56:56.140Z,4.80
2018-05-23T06:57:56.144Z,5.60
2018-05-23T06:58:56.150Z,4.80
2018-05-23T06:59:56.154Z,4.60
2018-05-23T07:00:56.161Z,4.50
2018-05-23T07:01:56.165Z,5.50
2018-05-23T07:02:56.171Z,4.50
2018-05-23T07:03:56.176Z,5.10
2018-05-23T07:04:56.182Z,5.30
2018-05-23T07:05:56.202Z,4.90
2018-05-23T07:06:56.193Z,5.40
2018-05-23T07:07:56.198Z,4.80
2018-05-23T07:08:56.207Z,5.40
2018-05-23T07:09:56.208Z,5.00
2018-05-23T07:10:56.215Z,5.30
2018-05-23T07:11:56.221Z,4.50
2018-05-23T07:12:56.227Z,5.10
2018-05-23T07:13:56.232Z,5.20
2018-05-23T07:14:56.239Z,5.30
2018-05-23T07:15:56.244Z,5.00
2018-05-23T07:16:56.258Z,6.00
2018-05-23T07:17:56.356Z,5.40
2018-05-23T07:18:56.261Z,5.70
2018-05-23T07:19:56.282Z,4.70
2018-05-23T07:20:56.273Z,4.60
2018-05-23T07:21:56.281Z,5.00
2018-05-23T07:22:56.285Z,4.70
2018-05-23T07:23:56.295Z,4.90
2018-05-23T07:24:56.297Z,5.00
2018-05-23T07:25:56.308Z,4.90
2018-05-23T07:26:56.309Z,4.50
2018-05-23T07:27:56.316Z,5.30
2018-05-23T07:28:56.321Z,5.20
2018-05-23T07:29:56.327Z,4.80
2018-05-23T07:30:56.353Z,5.10
2018-05-23T07:31:56.341Z,5.40
2018-05-23T07:32:56.352Z,5.10
2018-05-23T07:33:56.352Z,5.90
2018-05-23T07:34:56.359Z,5.50
2018-05-23T07:35:56.367Z,5.30
2018-05-23T07:36:56.377Z,5.20
2018-05-23T07:37:56.377Z,4.90
2018-05-23T07:38:56.385Z,5.70
2018-05-23T07:39:56.392Z,5.10
2018-05-23T07:40:56.399Z,5.30
2018-05-23T07:41:56.404Z,5.70
2018-05-23T07:42:56.411Z,7.00
2018-05-23T07:43:56.419Z,5.50
2018-05-23T07:44:56.425Z,5.90
2018-05-23T07:45:56.439Z,6.00
2018-05-23T07:46:56.441Z,8.30
2018-05-23T07:47:56.444Z,8.40
2018-05-23T07:48:56.451Z,6.70
2018-05-23T07:49:56.457Z,5.80
2018-05-23T07:50:56.464Z,5.00
2018-05-23T07:51:56.481Z,6.20
2018-05-23T07:52:56.479Z,5.60
2018-05-23T07:53:56.485Z,5.90
2018-05-23T07:54:56.494Z,5.10
2018-05-23T07:55:56.499Z,4.90
2018-05-23T07:56:56.505Z,5.20
2018-05-23T07:57:56.512Z,5.70
2018-05-23T07:58:56.520Z,5.50
2018-05-23T07:59:56.528Z,5.30
2018-05-23T08:00:56.536Z,4.40
2018-05-23T08:01:56.541Z,5.70
2018-05-23T08:02:56.549Z,5.00
2018-05-23T08:03:56.557Z,4.80
2018-05-23T08:04:56.563Z,5.60
2018-05-23T08:05:56.569Z,5.20
2018-05-23T08:06:56.577Z,5.30
2018-05-23T08:07:56.590Z,5.20
2018-05-23T08:08:56.593Z,4.80
2018-05-23T08:09:56.604Z,4.90
2018-05-23T08:10:56.608Z,5.00
2018-05-23T08:11:56.615Z,5.20
2018-05-23T08:12:56.623Z,5.30
2018-05-23T08:13:56.637Z,5.30
2018-05-23T08:14:56.639Z,4.60
2018-05-23T08:15:56.648Z,5.40
2018-05-23T08:16:56.653Z,5.10
2018-05-23T08:17:56.667Z,5.20
2018-05-23T08:18:56.668Z,5.50
2018-05-23T08:19:56.676Z,4.90
2018-05-23T08:20:56.685Z,5.50
2018-05-23T08:21:56.693Z,4.90
2018-05-23T08:22:56.700Z,4.60
2018-05-23T08:23:56.708Z,5.00
2018-05-23T08:24:56.717Z,5.40
2018-05-23T08:25:56.728Z,5.10
2018-05-23T08:26:56.733Z,4.90
2018-05-23T08:27:56.742Z,4.80
2018-05-23T08:28:56.752Z,5.10
2018-05-23T08:29:56.760Z,5.10
2018-05-23T08:30:56.767Z,4.80
2018-05-23T08:31:56.775Z,4.90
2018-05-23T08:32:56.787Z,4.90
2018-05-23T08:33:56.792Z,4.90
2018-05-23T08:34:56.801Z,4.30
2018-05-23T08:35:56.814Z,4.10
2018-05-23T08:36:56.819Z,4.60
2018-05-23T08:37:56.827Z,3.50
2018-05-23T08:38:56.837Z,4.30
2018-05-23T08:39:56.846Z,4.40
2018-05-23T08:40:56.856Z,4.80
2018-05-23T08:41:56.865Z,4.10
2018-05-23T08:42:56.874Z,4.40
2018-05-23T08:43:56.885Z,4.10
2018-05-23T08:44:56.895Z,4.00
2018-05-23T08:45:56.930Z,3.70
2018-05-23T08:46:56.913Z,4.00
2018-05-23T08:47:56.927Z,4.20
2018-05-23T08:48:56.933Z,3.80
2018-05-23T08:49:56.943Z,4.40
2018-05-23T08:50:56.953Z,4.30
2018-05-23T08:51:56.964Z,4.10
2018-05-23T08:52:56.974Z,4.40
2018-05-23T08:53:56.984Z,4.40
2018-05-23T08:54:56.995Z,4.50
2018-05-23T08:55:57.006Z,4.30
2018-05-23T08:56:57.017Z,3.70
2018-05-23T08:57:57.026Z,4.70
2018-05-23T08:58:57.041Z,5.10
2018-05-23T08:59:57.048Z,4.80
2018-05-23T09:00:57.059Z,3.90
2018-05-23T09:01:57.071Z,4.10
2018-05-23T09:02:57.082Z,4.40
2018-05-23T09:03:57.093Z,4.50
2018-05-23T09:04:57.137Z,4.10
2018-05-23T09:05:57.114Z,3.80
2018-05-23T09:06:57.127Z,3.70
2018-05-23T09:07:57.139Z,3.90
2018-05-23T09:08:57.151Z,4.20
2018-05-23T09:09:57.165Z,3.50
2018-05-23T09:10:57.174Z,3.90
2018-05-23T09:11:57.186Z,3.60
2018-05-23T09:12:57.198Z,4.40
2018-05-23T09:13:57.258Z,4.80
2018-05-23T09:14:57.220Z,4.80
2018-05-23T09:15:57.232Z,4.40
2018-05-23T09:16:57.243Z,4.10
2018-05-23T09:17:57.255Z,3.90
2018-05-23T09:18:57.266Z,4.80
2018-05-23T09:19:57.278Z,4.30
2018-05-23T09:20:57.292Z,4.00
2018-05-23T09:21:57.302Z,4.00
2018-05-23T09:22:57.314Z,3.70
2018-05-23T09:23:57.327Z,3.60
2018-05-23T09:24:57.339Z,3.10
2018-05-23T09:25:57.350Z,3.60
2018-05-23T09:26:57.363Z,3.30
2018-05-23T09:27:57.375Z,3.70
2018-05-23T09:28:57.389Z,3.30
2018-05-23T09:29:57.401Z,3.20
2018-05-23T09:30:57.497Z,3.40
2018-05-23T09:31:57.432Z,3.10
2018-05-23T09:32:57.442Z,3.40
2018-05-23T09:33:57.452Z,3.70
2018-05-23T09:34:57.470Z,2.80
2018-05-23T09:35:57.483Z,3.20
2018-05-23T09:36:57.494Z,2.70
2018-05-23T09:37:57.506Z,2.60
2018-05-23T09:38:57.521Z,3.10
2018-05-23T09:39:57.537Z,2.50
2018-05-23T09:40:57.553Z,2.80
2018-05-23T09:41:57.562Z,3.00
2018-05-23T09:42:57.580Z,3.10
2018-05-23T09:43:57.591Z,3.40
2018-05-23T09:44:57.606Z,2.90
2018-05-23T09:45:57.619Z,2.40
2018-05-23T09:46:57.632Z,2.80
2018-05-23T09:47:57.646Z,2.30
2018-05-23T09:48:57.660Z,2.50
2018-05-23T09:49:57.673Z,2.40
2018-05-23T09:50:57.687Z,2.50
2018-05-23T09:51:57.701Z,2.60
2018-05-23T09:52:57.714Z,3.10
2018-05-23T09:53:57.725Z,3.00
2018-05-23T09:54:57.782Z,2.30
2018-05-23T09:55:57.754Z,2.80
2018-05-23T09:56:57.768Z,3.00
2018-05-23T09:57:57.780Z,2.80
2018-05-23T09:58:57.793Z,3.00
2018-05-23T09:59:57.810Z,3.40
2018-05-23T10:00:57.819Z,3.20
2018-05-23T10:01:57.832Z,3.40
2018-05-23T10:02:57.843Z,3.40
2018-05-23T10:03:57.864Z,3.50
2018-05-23T10:04:57.869Z,3.60
2018-05-23T10:05:57.881Z,3.50
2018-05-23T10:06:57.893Z,3.80
2018-05-23T10:07:57.905Z,3.40
2018-05-23T10:08:57.918Z,3.30
2018-05-23T10:09:57.929Z,3.10
2018-05-23T10:10:57.944Z,3.90
2018-05-23T10:11:57.954Z,3.10
2018-05-23T10:12:57.968Z,3.20
2018-05-23T10:13:57.976Z,3.20
2018-05-23T10:14:57.990Z,3.00
2018-05-23T10:15:58.000Z,3.20
2018-05-23T10:16:58.012Z,3.00
2018-05-23T10:17:58.022Z,2.80
2018-05-23T10:18:58.035Z,3.10
2018-05-23T10:19:58.052Z,3.20
2018-05-23T10:20:58.058Z,3.60
2018-05-23T10:21:58.068Z,3.10
2018-05-23T10:22:58.090Z,2.90
2018-05-23T10:23:58.091Z,2.50
2018-05-23T10:24:58.102Z,2.50
2018-05-23T10:25:58.112Z,3.20
2018-05-23T10:26:58.123Z,2.70
2018-05-23T10:27:58.135Z,2.90
2018-05-23T10:28:58.145Z,2.60
2018-05-23T10:29:58.157Z,3.30
2018-05-23T10:30:58.167Z,3.00
2018-05-23T10:31:58.178Z,3.50
2018-05-23T10:32:58.189Z,2.90
2018-05-23T10:33:58.203Z,2.40
2018-05-23T10:34:58.209Z,3.30
2018-05-23T10:35:58.220Z,2.60
2018-05-23T10:36:58.231Z,3.00
2018-05-23T10:37:58.242Z,3.00
2018-05-23T10:38:58.273Z,3.30
2018-05-23T10:39:58.264Z,2.70
2018-05-23T10:40:58.273Z,2.90
2018-05-23T10:41:58.283Z,3.00
2018-05-23T10:42:58.294Z,3.10
2018-05-23T10:43:58.303Z,2.80
2018-05-23T10:44:58.313Z,3.30
2018-05-23T10:45:58.323Z,4.10
2018-05-23T10:46:58.334Z,2.90
2018-05-23T10:47:58.344Z,3.30
2018-05-23T10:48:58.356Z,3.50
2018-05-23T10:49:58.365Z,2.70
2018-05-23T10:50:58.374Z,2.90
2018-05-23T10:51:58.456Z,2.60
2018-05-23T10:52:58.397Z,2.70
2018-05-23T10:53:58.405Z,2.60
2018-05-23T10:54:58.417Z,2.00
2018-05-23T10:55:58.427Z,2.60
2018-05-23T10:56:58.437Z,2.50
2018-05-23T10:57:58.447Z,2.80
2018-05-23T10:58:58.458Z,2.60
2018-05-23T10:59:58.469Z,2.70
2018-05-23T11:00:58.479Z,2.90
2018-05-23T11:01:58.489Z,2.70
2018-05-23T11:02:58.521Z,2.50
2018-05-23T11:03:58.510Z,3.00
2018-05-23T11:04:58.520Z,3.10
2018-05-23T11:05:58.559Z,2.80
2018-05-23T11:06:58.541Z,2.80
2018-05-23T11:07:58.552Z,2.40
2018-05-23T11:08:58.647Z,2.50
2018-05-23T11:09:58.573Z,2.70
2018-05-23T11:10:58.585Z,2.40
2018-05-23T11:11:58.595Z,2.50
2018-05-23T11:12:58.606Z,2.60
2018-05-23T11:13:58.621Z,2.80
2018-05-23T11:14:58.631Z,2.70
2018-05-23T11:15:58.638Z,2.10
2018-05-23T11:16:58.648Z,2.20
2018-05-23T11:17:58.659Z,2.80
2018-05-23T11:18:58.671Z,2.70
2018-05-23T11:19:58.681Z,2.30
2018-05-23T11:20:58.692Z,2.40
2018-05-23T11:21:58.702Z,3.00
2018-05-23T11:22:58.712Z,2.90
2018-05-23T11:23:58.725Z,2.60
2018-05-23T11:24:58.735Z,2.70
2018-05-23T11:25:58.745Z,2.50
2018-05-23T11:26:58.755Z,2.70
2018-05-23T11:27:58.768Z,2.80
2018-05-23T11:28:58.776Z,2.80
2018-05-23T11:29:58.786Z,2.50
2018-05-23T11:30:58.797Z,2.80
2018-05-23T11:31:58.808Z,2.70
2018-05-23T11:32:58.820Z,3.20
2018-05-23T11:33:58.829Z,2.70
2018-05-23T11:34:58.840Z,2.60
2018-05-23T11:35:58.851Z,3.00
2018-05-23T11:36:58.861Z,2.70
2018-05-23T11:37:58.872Z,2.70
2018-05-23T11:38:58.883Z,2.50
2018-05-23T11:39:58.896Z,2.40
2018-05-23T11:40:58.904Z,2.60
2018-05-23T11:41:58.913Z,2.70
2018-05-23T11:42:58.924Z,2.50
2018-05-23T11:43:58.942Z,2.50
2018-05-23T11:44:58.947Z,3.20
2018-05-23T11:45:58.955Z,2.90
2018-05-23T11:46:58.966Z,2.60
2018-05-23T11:47:58.976Z,2.80
2018-05-23T11:48:58.988Z,2.40
2018-05-23T11:49:58.998Z,2.70
2018-05-23T11:50:59.007Z,2.40
2018-05-23T11:51:59.020Z,2.60
2018-05-23T11:52:59.028Z,2.20
2018-05-23T11:53:59.040Z,2.70
2018-05-23T11:54:59.049Z,2.20
2018-05-23T11:55:59.059Z,2.90
2018-05-23T11:56:59.071Z,3.00
2018-05-23T11:57:59.081Z,3.20
2018-05-23T11:58:59.090Z,2.90
2018-05-23T11:59:59.100Z,3.10
2018-05-23T12:00:59.115Z,2.30
2018-05-23T12:01:59.231Z,2.60
2018-05-23T12:02:59.132Z,2.50
2018-05-23T12:03:59.141Z,2.80
2018-05-23T12:04:59.152Z,2.60
2018-05-23T12:05:59.161Z,2.80
2018-05-23T12:06:59.174Z,3.00
2018-05-23T12:07:59.182Z,2.60
2018-05-23T12:08:59.192Z,2.80
2018-05-23T12:09:59.202Z,2.80
2018-05-23T12:10:59.216Z,3.30
2018-05-23T12:11:59.223Z,3.00
2018-05-23T12:12:59.235Z,2.80
2018-05-23T12:13:59.244Z,2.70
2018-05-23T12:14:59.262Z,3.10
2018-05-23T12:15:59.265Z,3.10
2018-05-23T12:16:59.275Z,3.00
2018-05-23T12:17:59.285Z,3.30
2018-05-23T12:18:59.296Z,3.00
2018-05-23T12:19:59.305Z,3.20
2018-05-23T12:20:59.316Z,3.40
2018-05-23T12:21:59.326Z,3.70
2018-05-23T12:22:59.340Z,2.90
2018-05-23T12:23:59.348Z,3.20
2018-05-23T12:24:59.360Z,3.30
2018-05-23T12:25:59.366Z,2.90
2018-05-23T12:26:59.376Z,3.30
2018-05-23T12:27:59.387Z,2.90
2018-05-23T12:28:59.398Z,3.40
2018-05-23T12:29:59.411Z,2.70
2018-05-23T12:30:59.417Z,3.20
2018-05-23T12:31:59.428Z,2.70
2018-05-23T12:32:59.438Z,3.30
2018-05-23T12:33:59.448Z,3.20
2018-05-23T12:34:59.458Z,3.30
2018-05-23T12:35:59.471Z,2.90
2018-05-23T12:36:59.482Z,3.10
2018-05-23T12:37:59.488Z,3.50
2018-05-23T12:38:59.499Z,3.20
2018-05-23T12:39:59.513Z,2.60
2018-05-23T12:40:59.530Z,2.90
2018-05-23T12:41:59.530Z,2.70
2018-05-23T12:42:59.540Z,2.60
2018-05-23T12:43:59.551Z,2.50
2018-05-23T12:44:59.562Z,3.20
2018-05-23T12:45:59.574Z,2.60
2018-05-23T12:46:59.580Z,2.90
2018-05-23T12:47:59.591Z,2.90
2018-05-23T12:48:59.602Z,2.80
2018-05-23T12:49:59.613Z,2.90
2018-05-23T12:50:59.623Z,3.00
2018-05-23T12:51:59.633Z,2.50
2018-05-23T12:52:59.643Z,3.20
2018-05-23T12:53:59.653Z,2.90
2018-05-23T12:54:59.664Z,2.70
2018-05-23T12:55:59.674Z,3.20
2018-05-23T12:56:59.685Z,3.10
2018-05-23T12:57:59.694Z,2.60
2018-05-23T12:58:59.708Z,3.00
2018-05-23T12:59:59.715Z,3.10
2018-05-23T13:00:59.728Z,2.90
2018-05-23T13:01:59.736Z,3.30
2018-05-23T13:02:59.755Z,3.10
2018-05-23T13:03:59.760Z,3.10
2018-05-23T13:04:59.767Z,2.80
2018-05-23T13:05:59.776Z,3.00
2018-05-23T13:06:59.788Z,2.80
2018-05-23T13:07:59.797Z,3.50
2018-05-23T13:08:59.807Z,3.40
2018-05-23T13:09:59.817Z,3.20
2018-05-23T13:10:59.828Z,3.10
2018-05-23T13:11:59.838Z,2.60
2018-05-23T13:12:59.849Z,2.90
2018-05-23T13:13:59.858Z,3.00
2018-05-23T13:14:59.868Z,2.90
2018-05-23T13:15:59.878Z,2.90
2018-05-23T13:16:59.889Z,2.80
2018-05-23T13:17:59.991Z,3.60
2018-05-23T13:18:59.909Z,3.00